aviador You're here:

KLPC Decoded Metar

LOMPOC in CA, USA
Report Time2017-03-23 03:56:00
UTC Time2017-03-23 04:13:13
Flight Rules vfr VFR
Wind300° at 07 kt
W.Decomp.*RWY 25: 5.7 kt HW 4.0 kt RCW
W.Rank300° ranks 5
Current wind is below 300° avg. (8.2)
Visibility9999 m
Phenomena:N/A
Clouds:Few 026 Hf
Expected CloudBase > 1,600 ft AGL from Temp-Dew spread
CeilingNone
Temp12°C (ISA -3)
Dew Point08°C (77% RH)
AAT9.0°C
QNH1019 hPa
Density Alt-305 ft
Elevation89 ft
Report Wrong Elevation
Raw Report
METAR KLPC 230356Z AUTO 30007KT 10SM FEW026 12/08 A3008 RMK AO2 SLP189
T01170078=

Extra information for KLPC:More info

Metar Taf Metar & Taf Last 4 Metars F.Rules Stats Wind Profile Meteogram Temp Stats Airport Information Weather charts Add Link Nearby VenuesMetar ALERT Operation Metar Decoded Social comments

AIRNAV info for KLPC